Time;durP1;ratioP1;P1;durP2;ratioP2;P2;SDS_P1;SDS_P2;PMS_P1;PMS_P2;Temp;Humidity;BMP_temperature;BMP_pressure;BME280_temperature;BME280_humidity;BME280_pressure;Samples;Min_cycle;Max_cycle;Signal;HPM_P1;HPM_P2
2021/10/12 00:01:07;;;;;;;19.95;2.25;;;7.70;99.90;;;;;;4975705;28;20019;-69
2021/10/12 00:03:33;;;;;;;17.25;1.80;;;7.70;99.90;;;;;;4975393;28;20399;-69
2021/10/12 00:05:59;;;;;;;7.15;1.30;;;7.60;99.90;;;;;;4975291;28;20027;-69
2021/10/12 00:08:25;;;;;;;4.95;1.40;;;7.60;99.90;;;;;;4975588;28;20035;-69
2021/10/12 00:10:51;;;;;;;17.92;1.73;;;7.60;99.90;;;;;;4973643;28;20034;-69
2021/10/12 00:13:17;;;;;;;17.48;1.30;;;7.60;99.90;;;;;;4975044;28;20138;-69
2021/10/12 00:15:43;;;;;;;17.48;2.58;;;7.60;99.90;;;;;;4973794;28;20067;-69
2021/10/12 00:18:09;;;;;;;7.40;1.17;;;7.50;99.90;;;;;;4975143;28;20054;-69
2021/10/12 00:20:35;;;;;;;7.53;1.40;;;7.50;99.90;;;;;;4975118;28;20030;-69
2021/10/12 00:23:00;;;;;;;14.43;2.08;;;7.60;99.90;;;;;;4975372;28;20027;-69
2021/10/12 00:25:26;;;;;;;11.55;1.38;;;7.80;99.90;;;;;;4973715;28;20112;-69
2021/10/12 00:27:52;;;;;;;12.95;1.33;;;8.00;99.90;;;;;;4973738;28;20085;-69
2021/10/12 00:30:17;;;;;;;11.55;1.70;;;8.00;99.90;;;;;;4975039;28;20403;-69
2021/10/12 00:32:43;;;;;;;21.42;1.88;;;8.10;99.90;;;;;;4974903;28;20037;-69
2021/10/12 00:35:08;;;;;;;15.93;1.63;;;8.00;99.90;;;;;;4975050;28;20034;-69
2021/10/12 00:37:34;;;;;;;9.63;1.40;;;7.90;99.90;;;;;;4973532;28;20062;-69
2021/10/12 00:39:59;;;;;;;18.88;1.98;;;7.80;99.90;;;;;;4974756;28;20027;-69
2021/10/12 00:42:25;;;;;;;22.95;2.20;;;7.80;99.90;;;;;;4974746;28;20033;-69
2021/10/12 00:44:51;;;;;;;14.80;1.85;;;7.80;99.90;;;;;;4989671;28;20030;-69
2021/10/12 00:47:17;;;;;;;16.08;1.70;;;7.70;99.90;;;;;;4974600;28;20398;-69
2021/10/12 00:49:42;;;;;;;9.77;2.38;;;7.70;99.90;;;;;;4974682;28;20479;-69
2021/10/12 00:52:08;;;;;;;11.65;1.67;;;7.70;99.90;;;;;;4975157;28;20027;-69
2021/10/12 00:54:33;;;;;;;18.40;1.65;;;7.60;99.90;;;;;;4974594;28;20387;-69
2021/10/12 00:57:00;;;;;;;14.45;1.55;;;7.60;99.90;;;;;;4974325;28;20065;-69
2021/10/12 00:59:25;;;;;;;8.18;1.33;;;7.60;99.90;;;;;;4973241;28;20121;-69
2021/10/12 01:01:51;;;;;;;18.88;1.90;;;7.40;99.90;;;;;;4974760;28;20066;-69
2021/10/12 01:04:16;;;;;;;11.18;1.38;;;7.30;99.90;;;;;;4989397;28;20034;-69
2021/10/12 01:06:43;;;;;;;12.98;1.45;;;7.20;99.90;;;;;;4974400;28;20521;-69
2021/10/12 01:09:08;;;;;;;11.57;1.83;;;7.10;99.90;;;;;;4974695;28;20034;-69
2021/10/12 01:11:35;;;;;;;6.93;1.30;;;7.00;99.90;;;;;;4974415;28;20027;-69
2021/10/12 01:14:01;;;;;;;6.53;1.35;;;6.90;99.90;;;;;;4974432;28;20474;-69
2021/10/12 01:16:27;;;;;;;7.22;2.38;;;6.80;99.90;;;;;;4974218;28;20037;-69
2021/10/12 01:19:02;;;;;;;15.40;2.38;;;6.70;99.90;;;;;;4973086;28;20019;-69
2021/10/12 01:21:29;;;;;;;12.27;1.92;;;6.60;99.90;;;;;;4974527;28;20094;-69
2021/10/12 01:23:55;;;;;;;14.85;2.08;;;6.70;99.90;;;;;;4976049;28;20027;-69
2021/10/12 01:26:21;;;;;;;12.98;1.83;;;6.70;99.90;;;;;;4978457;28;20027;-69
2021/10/12 01:28:47;;;;;;;8.52;1.20;;;6.90;99.90;;;;;;4976990;28;20023;-69
2021/10/12 01:31:18;;;;;;;10.00;1.58;;;6.80;99.90;;;;;;4978193;28;20390;-69
2021/10/12 01:33:44;;;;;;;13.00;2.22;;;6.90;99.90;;;;;;4978459;28;20097;-69
2021/10/12 01:36:09;;;;;;;9.40;1.48;;;6.90;99.90;;;;;;4977947;28;20534;-69
2021/10/12 01:38:35;;;;;;;12.07;1.55;;;7.00;99.90;;;;;;4978028;28;20030;-69
2021/10/12 01:41:01;;;;;;;23.48;2.92;;;7.20;99.90;;;;;;4976680;28;20023;-69
2021/10/12 01:43:27;;;;;;;14.95;1.85;;;7.30;99.90;;;;;;4977956;28;20150;-69
2021/10/12 01:46:01;;;;;;;17.25;2.67;;;7.30;99.90;;;;;;4977815;28;20023;-69
2021/10/12 01:48:27;;;;;;;20.27;3.10;;;7.40;99.90;;;;;;4978142;28;20030;-69
2021/10/12 01:50:52;;;;;;;34.28;3.72;;;7.40;99.90;;;;;;4977828;28;20033;-69
2021/10/12 01:53:18;;;;;;;22.27;2.30;;;7.30;99.90;;;;;;4978036;28;20031;-69
2021/10/12 01:55:43;;;;;;;23.88;2.88;;;7.30;99.90;;;;;;4977497;28;20066;-69
2021/10/12 01:58:09;;;;;;;18.08;2.20;;;7.30;99.90;;;;;;4977689;28;20382;-69
2021/10/12 02:00:34;;;;;;;15.38;1.77;;;7.30;99.90;;;;;;4992612;28;20030;-69
2021/10/12 02:03:00;;;;;;;17.48;1.92;;;7.30;99.90;;;;;;4992567;28;20062;-69
2021/10/12 02:05:26;;;;;;;16.40;2.63;;;7.20;99.90;;;;;;4977726;28;20486;-69
2021/10/12 02:07:51;;;;;;;15.82;1.92;;;7.10;99.90;;;;;;4977507;28;20105;-69
2021/10/12 02:10:17;;;;;;;16.17;2.10;;;6.90;99.90;;;;;;4992439;28;20027;-69
2021/10/12 02:12:42;;;;;;;13.57;1.90;;;6.80;99.90;;;;;;4976236;28;20038;-69
2021/10/12 02:15:09;;;;;;;18.05;2.35;;;6.70;99.90;;;;;;4992618;28;20026;-69
2021/10/12 02:17:34;;;;;;;10.80;2.55;;;6.70;99.90;;;;;;4976561;28;20026;-69
2021/10/12 02:20:00;;;;;;;14.48;2.00;;;6.70;99.90;;;;;;4977579;28;20490;-69
2021/10/12 02:22:27;;;;;;;17.67;1.92;;;6.60;99.90;;;;;;4992448;28;20034;-69
2021/10/12 02:24:52;;;;;;;14.65;2.20;;;6.60;99.90;;;;;;4977491;28;20105;-69
2021/10/12 02:27:18;;;;;;;29.20;2.72;;;6.50;99.90;;;;;;4977371;28;20110;-69
2021/10/12 02:29:44;;;;;;;20.50;2.25;;;6.50;99.90;;;;;;4992133;28;20034;-69
2021/10/12 02:32:09;;;;;;;21.63;2.00;;;6.40;99.90;;;;;;4977092;28;20078;-69
2021/10/12 02:34:35;;;;;;;26.48;2.67;;;6.40;99.90;;;;;;4975253;28;20038;-69
2021/10/12 02:37:01;;;;;;;24.33;2.53;;;6.40;99.90;;;;;;4975640;28;20027;-69
2021/10/12 02:39:26;;;;;;;30.45;2.45;;;6.40;99.90;;;;;;4975730;28;20390;-69
2021/10/12 02:41:52;;;;;;;20.10;2.17;;;6.40;99.90;;;;;;4977048;28;20050;-69
2021/10/12 02:44:17;;;;;;;25.48;2.20;;;6.40;99.90;;;;;;4977127;28;20029;-69
2021/10/12 02:46:43;;;;;;;20.80;2.80;;;6.30;99.90;;;;;;4975533;28;20027;-69
2021/10/12 02:49:08;;;;;;;21.20;2.10;;;6.30;99.90;;;;;;4976808;28;20022;-69
2021/10/12 02:51:34;;;;;;;15.95;1.80;;;6.20;99.90;;;;;;4976810;28;20042;-69
2021/10/12 02:53:59;;;;;;;12.35;2.13;;;6.20;99.90;;;;;;4976714;28;20038;-69
2021/10/12 02:56:25;;;;;;;24.40;2.80;;;6.30;99.90;;;;;;4976482;28;20045;-69
2021/10/12 02:58:50;;;;;;;19.17;2.35;;;6.40;99.90;;;;;;4992156;28;20356;-69
2021/10/12 03:01:16;;;;;;;29.92;2.25;;;6.40;99.90;;;;;;4976584;28;20030;-69
2021/10/12 03:03:42;;;;;;;31.65;2.85;;;6.50;99.90;;;;;;4976530;28;20023;-69
2021/10/12 03:06:07;;;;;;;21.92;2.00;;;6.50;99.90;;;;;;4976422;28;20038;-69
2021/10/12 03:08:33;;;;;;;13.10;2.63;;;6.40;99.90;;;;;;4975217;28;20505;-69
2021/10/12 03:10:58;;;;;;;15.88;2.13;;;6.40;99.90;;;;;;4976669;28;20506;-69
2021/10/12 03:13:24;;;;;;;12.40;1.90;;;6.30;99.90;;;;;;4976594;28;20027;-69
2021/10/12 03:15:49;;;;;;;27.05;2.35;;;6.20;99.90;;;;;;4976176;28;20031;-69
2021/10/12 03:18:16;;;;;;;26.58;2.67;;;6.30;99.90;;;;;;4976224;28;20023;-69
2021/10/12 03:20:42;;;;;;;23.30;2.63;;;6.20;99.90;;;;;;4977301;28;20026;-69
2021/10/12 03:23:07;;;;;;;10.85;3.08;;;6.30;99.90;;;;;;4975475;28;20078;-69
2021/10/12 03:25:33;;;;;;;10.10;2.20;;;6.40;99.90;;;;;;4976048;28;20027;-69
2021/10/12 03:27:58;;;;;;;7.40;1.70;;;6.50;99.90;;;;;;4991005;28;20038;-69
2021/10/12 03:30:24;;;;;;;17.90;1.92;;;6.60;99.90;;;;;;4976036;28;20027;-69
2021/10/12 03:32:50;;;;;;;15.02;1.90;;;6.50;99.90;;;;;;4974762;28;20059;-69
2021/10/12 03:35:18;;;;;;;15.63;2.03;;;6.50;99.90;;;;;;4990799;28;20031;-69
2021/10/12 03:37:44;;;;;;;11.77;1.45;;;6.40;99.90;;;;;;4976091;28;20041;-69
2021/10/12 03:40:10;;;;;;;19.27;2.17;;;6.40;99.90;;;;;;4975853;28;20023;-69
2021/10/12 03:42:36;;;;;;;15.18;2.17;;;6.40;99.90;;;;;;4976053;28;20034;-69
2021/10/12 03:45:02;;;;;;;8.10;1.95;;;6.30;99.90;;;;;;4990905;28;20077;-69
2021/10/12 03:47:27;;;;;;;21.23;1.92;;;6.30;99.90;;;;;;4975105;28;20023;-69
2021/10/12 03:49:53;;;;;;;21.23;2.13;;;6.20;99.90;;;;;;4976191;28;20031;-69
2021/10/12 03:52:18;;;;;;;17.23;2.17;;;6.20;99.90;;;;;;4974361;28;20122;-69
2021/10/12 03:54:44;;;;;;;16.20;1.75;;;6.20;99.90;;;;;;4975602;28;20058;-69
2021/10/12 03:57:09;;;;;;;8.75;1.58;;;6.20;99.90;;;;;;4975373;28;20035;-69
2021/10/12 03:59:35;;;;;;;12.32;1.77;;;6.20;99.90;;;;;;4975914;28;20478;-69
2021/10/12 04:02:00;;;;;;;15.70;2.53;;;6.20;99.90;;;;;;4975439;28;20497;-69
2021/10/12 04:04:26;;;;;;;12.07;2.17;;;6.30;99.90;;;;;;4975415;28;20019;-69
2021/10/12 04:06:52;;;;;;;14.82;1.27;;;6.40;99.90;;;;;;4990572;28;20429;-69
2021/10/12 04:09:17;;;;;;;11.45;1.77;;;6.40;99.90;;;;;;4975320;28;20105;-69
2021/10/12 04:11:43;;;;;;;9.38;1.60;;;6.40;99.90;;;;;;4975569;28;20387;-69
2021/10/12 04:14:09;;;;;;;3.33;0.85;;;6.30;99.90;;;;;;4973982;28;20027;-69
2021/10/12 04:16:35;;;;;;;3.13;1.15;;;6.30;99.90;;;;;;4975142;28;20391;-69
2021/10/12 04:19:01;;;;;;;3.13;1.60;;;6.20;99.90;;;;;;4975411;28;20023;-69
2021/10/12 04:21:26;;;;;;;3.92;1.08;;;6.10;99.90;;;;;;4975374;28;20027;-69
2021/10/12 04:23:52;;;;;;;15.10;1.13;;;6.00;99.90;;;;;;4975097;28;20019;-69
2021/10/12 04:26:19;;;;;;;4.93;0.93;;;5.80;99.90;;;;;;4974936;28;20035;-69
2021/10/12 04:28:44;;;;;;;4.60;1.27;;;5.70;99.90;;;;;;4975788;28;20031;-69
2021/10/12 04:31:11;;;;;;;9.07;1.08;;;5.60;99.90;;;;;;4974935;28;20364;-69
2021/10/12 04:33:36;;;;;;;6.05;1.15;;;5.50;99.90;;;;;;4974910;28;20035;-69
2021/10/12 04:36:02;;;;;;;11.20;1.58;;;5.50;99.90;;;;;;4974727;28;20030;-69
2021/10/12 04:38:28;;;;;;;13.38;2.28;;;5.50;99.90;;;;;;4975122;28;20098;-69
2021/10/12 04:40:54;;;;;;;2.88;1.35;;;5.40;99.90;;;;;;4975109;28;20030;-69
2021/10/12 04:43:21;;;;;;;9.27;1.27;;;5.40;99.90;;;;;;4975018;28;20426;-69
2021/10/12 04:45:47;;;;;;;3.17;1.05;;;5.30;99.90;;;;;;4975227;28;20022;-69
2021/10/12 04:48:15;;;;;;;7.88;1.23;;;5.30;99.90;;;;;;4974733;28;20123;-69
2021/10/12 04:50:40;;;;;;;7.15;1.20;;;5.30;99.90;;;;;;4989588;28;20027;-69
2021/10/12 04:53:06;;;;;;;13.38;1.75;;;5.30;99.90;;;;;;4974876;28;20106;-69
2021/10/12 04:55:31;;;;;;;7.07;1.15;;;5.30;99.90;;;;;;4973241;28;20085;-69
2021/10/12 04:57:58;;;;;;;11.07;1.10;;;5.30;99.90;;;;;;4973913;28;20027;-69
2021/10/12 05:00:23;;;;;;;13.20;2.10;;;5.20;99.90;;;;;;4973279;28;20023;-69
2021/10/12 05:02:49;;;;;;;14.18;1.80;;;5.20;99.90;;;;;;4974820;28;20022;-69
2021/10/12 05:05:14;;;;;;;15.68;1.67;;;5.20;99.90;;;;;;4974422;28;20027;-69
2021/10/12 05:07:40;;;;;;;7.20;2.05;;;5.10;99.90;;;;;;4974960;28;20031;-69
2021/10/12 05:10:06;;;;;;;3.90;1.63;;;5.20;99.90;;;;;;4989349;28;20081;-69
2021/10/12 05:12:32;;;;;;;9.77;1.60;;;5.20;99.90;;;;;;4974485;28;20023;-69
2021/10/12 05:14:57;;;;;;;6.30;1.27;;;5.10;99.90;;;;;;4975420;28;20027;-69
2021/10/12 05:17:32;;;;;;;15.35;1.80;;;5.00;99.90;;;;;;4972998;28;20033;-69
2021/10/12 05:19:58;;;;;;;12.27;1.58;;;4.90;99.90;;;;;;4974642;28;20479;-69
2021/10/12 05:22:23;;;;;;;11.35;1.30;;;4.80;99.90;;;;;;4989273;28;20027;-69
2021/10/12 05:24:49;;;;;;;9.85;1.58;;;4.80;99.90;;;;;;4974824;28;20023;-69
2021/10/12 05:27:15;;;;;;;7.70;1.10;;;4.70;99.90;;;;;;4974199;28;20034;-69
2021/10/12 05:29:40;;;;;;;12.93;1.40;;;4.60;99.90;;;;;;4974775;28;20165;-69
2021/10/12 05:32:06;;;;;;;6.68;1.58;;;4.50;99.90;;;;;;4972971;28;20034;-69
2021/10/12 05:34:32;;;;;;;8.90;1.27;;;4.60;99.90;;;;;;4974207;28;20041;-69
2021/10/12 05:36:58;;;;;;;6.30;1.40;;;4.50;99.90;;;;;;4974028;28;20113;-69
2021/10/12 05:39:23;;;;;;;6.25;1.40;;;4.40;99.90;;;;;;4974197;28;20023;-69
2021/10/12 05:41:49;;;;;;;5.63;1.40;;;4.30;99.90;;;;;;4974440;28;20062;-69
2021/10/12 05:44:14;;;;;;;5.63;1.17;;;4.30;99.90;;;;;;4974132;28;20026;-69
2021/10/12 05:46:40;;;;;;;6.38;2.15;;;4.20;99.90;;;;;;4974058;28;20494;-69
2021/10/12 05:49:06;;;;;;;2.50;0.95;;;4.10;99.90;;;;;;4974616;28;20466;-69
2021/10/12 05:51:32;;;;;;;21.25;2.58;;;4.10;99.90;;;;;;4974370;28;20050;-69
2021/10/12 05:53:59;;;;;;;11.50;3.15;;;4.00;99.90;;;;;;4974331;28;20101;-69
2021/10/12 05:56:27;;;;;;;15.68;2.30;;;4.00;99.90;;;;;;5074221;23;20047;-69
2021/10/12 05:58:54;;;;;;;9.02;2.20;;;4.00;99.90;;;;;;4974332;28;20070;-69
2021/10/12 06:01:21;;;;;;;5.07;1.95;;;4.00;99.90;;;;;;4988892;28;20030;-69
2021/10/12 06:03:47;;;;;;;7.00;2.03;;;4.00;99.90;;;;;;4974006;28;20031;-69
2021/10/12 06:06:13;;;;;;;7.63;1.80;;;3.90;99.90;;;;;;4973929;28;20122;-69
2021/10/12 06:08:40;;;;;;;12.85;1.90;;;3.90;99.90;;;;;;4973949;28;20054;-69
2021/10/12 06:11:07;;;;;;;10.27;1.75;;;3.90;99.90;;;;;;4977016;28;20470;-69
2021/10/12 06:13:36;;;;;;;7.60;1.50;;;3.90;99.90;;;;;;4977508;28;20027;-69
2021/10/12 06:16:01;;;;;;;9.60;1.50;;;3.90;99.90;;;;;;4977979;28;20413;-69
2021/10/12 06:18:28;;;;;;;9.10;1.98;;;4.00;99.90;;;;;;4977680;28;20022;-70
2021/10/12 06:20:54;;;;;;;9.73;1.58;;;4.00;99.90;;;;;;4977350;28;20015;-69
2021/10/12 06:23:20;;;;;;;4.65;1.33;;;4.10;99.90;;;;;;4977298;28;20111;-69
2021/10/12 06:25:46;;;;;;;6.85;1.55;;;4.00;99.90;;;;;;4975952;28;20027;-69
2021/10/12 06:28:14;;;;;;;9.48;1.23;;;4.00;99.90;;;;;;4977529;28;20029;-69
2021/10/12 06:30:40;;;;;;;12.95;1.67;;;4.00;99.90;;;;;;4977177;28;20101;-69
2021/10/12 06:33:06;;;;;;;7.53;1.58;;;4.10;99.90;;;;;;4977159;28;20057;-69
2021/10/12 06:35:32;;;;;;;7.15;1.50;;;4.20;99.90;;;;;;4977101;28;20470;-69
2021/10/12 06:37:58;;;;;;;6.38;1.45;;;4.20;99.90;;;;;;4976908;28;20031;-69
2021/10/12 06:40:24;;;;;;;7.47;1.80;;;4.30;99.90;;;;;;4976986;28;20060;-69
2021/10/12 06:42:50;;;;;;;10.90;2.35;;;4.40;99.90;;;;;;4976949;28;20387;-69
2021/10/12 06:45:16;;;;;;;13.40;3.15;;;4.60;99.90;;;;;;4977158;28;20036;-69
2021/10/12 06:47:43;;;;;;;21.90;3.58;;;4.70;99.90;;;;;;4977372;28;20065;-69
2021/10/12 06:50:09;;;;;;;16.95;2.30;;;4.80;99.90;;;;;;4976801;28;20035;-69
2021/10/12 06:52:34;;;;;;;11.40;1.60;;;4.90;99.90;;;;;;4976762;28;20474;-69
2021/10/12 06:55:00;;;;;;;15.75;2.30;;;5.00;99.90;;;;;;4976735;28;20438;-69
2021/10/12 06:57:26;;;;;;;12.93;1.92;;;5.10;99.90;;;;;;4975188;28;20058;-69
2021/10/12 06:59:51;;;;;;;19.83;2.35;;;5.20;99.90;;;;;;4976632;28;20054;-70
2021/10/12 07:02:18;;;;;;;8.73;2.08;;;5.30;99.90;;;;;;4976874;28;20026;-69
2021/10/12 07:04:44;;;;;;;8.45;1.88;;;5.40;99.90;;;;;;4976822;28;20031;-69
2021/10/12 07:07:10;;;;;;;27.42;3.67;;;5.60;99.90;;;;;;4976423;28;20027;-69
2021/10/12 07:09:35;;;;;;;17.85;2.13;;;5.80;99.90;;;;;;4976463;28;20102;-69
2021/10/12 07:12:01;;;;;;;20.40;2.53;;;6.00;99.90;;;;;;4976417;28;20039;-69
2021/10/12 07:14:27;;;;;;;24.13;2.35;;;6.20;99.90;;;;;;4976633;28;20038;-70
2021/10/12 07:16:53;;;;;;;15.52;2.10;;;6.30;99.90;;;;;;4976202;28;20034;-69
2021/10/12 07:19:19;;;;;;;14.88;2.75;;;6.40;99.90;;;;;;4976299;28;20023;-69
2021/10/12 07:21:45;;;;;;;19.73;2.20;;;6.50;99.90;;;;;;4976176;28;20028;-69
2021/10/12 07:24:11;;;;;;;17.90;2.33;;;6.70;99.90;;;;;;4976201;28;20047;-70
2021/10/12 07:26:37;;;;;;;12.70;2.25;;;6.90;99.90;;;;;;4976076;28;20531;-69
2021/10/12 07:29:02;;;;;;;15.52;1.90;;;7.00;99.90;;;;;;4976130;28;20475;-69
2021/10/12 07:31:28;;;;;;;16.65;2.15;;;7.10;99.90;;;;;;4976615;28;20046;-69
2021/10/12 07:33:53;;;;;;;31.33;2.20;;;7.30;99.90;;;;;;4976243;28;20367;-70
2021/10/12 07:36:19;;;;;;;16.83;2.30;;;7.40;99.90;;;;;;4976099;28;20023;-69
2021/10/12 07:38:45;;;;;;;23.17;2.53;;;7.60;99.90;;;;;;4975908;28;20030;-70
2021/10/12 07:41:12;;;;;;;18.08;2.10;;;7.70;99.90;;;;;;4975852;28;20019;-70
2021/10/12 07:43:38;;;;;;;25.88;3.05;;;7.90;99.90;;;;;;4974600;28;20114;-69
2021/10/12 07:46:04;;;;;;;24.02;2.08;;;7.90;99.90;;;;;;4975975;28;20023;-69
2021/10/12 07:48:29;;;;;;;27.65;2.70;;;8.00;99.90;;;;;;4976273;28;20022;-70
2021/10/12 07:50:55;;;;;;;22.10;3.33;;;8.10;99.90;;;;;;4975715;28;20058;-69
2021/10/12 07:53:21;;;;;;;10.63;2.38;;;8.20;99.90;;;;;;4990586;28;20027;-70
2021/10/12 07:55:53;;;;;;;13.75;2.53;;;8.30;99.90;;;;;;4976006;28;20027;-70
2021/10/12 07:58:19;;;;;;;12.73;2.28;;;8.30;99.90;;;;;;4975895;28;19917;-70
2021/10/12 08:00:44;;;;;;;15.60;2.40;;;8.40;99.90;;;;;;4975590;28;20035;-70
2021/10/12 08:03:10;;;;;;;19.33;2.63;;;8.50;99.90;;;;;;4975724;28;20023;-70
2021/10/12 08:05:37;;;;;;;15.93;2.13;;;8.70;99.90;;;;;;4975644;28;20105;-70
2021/10/12 08:08:03;;;;;;;9.63;1.83;;;8.90;99.90;;;;;;4990338;28;20019;-70
2021/10/12 08:10:30;;;;;;;10.48;1.80;;;9.00;99.90;;;;;;4975592;28;20027;-70
2021/10/12 08:13:00;;;;;;;7.78;1.80;;;9.10;99.90;;;;;;4975887;28;20126;-70
2021/10/12 08:15:26;;;;;;;15.57;1.95;;;9.20;99.90;;;;;;4975263;28;20023;-70
2021/10/12 08:17:52;;;;;;;14.25;2.05;;;9.30;99.90;;;;;;4975065;28;20069;-70
2021/10/12 08:20:18;;;;;;;12.45;2.58;;;9.40;99.90;;;;;;4975217;28;20061;-70
2021/10/12 08:22:45;;;;;;;11.40;2.17;;;9.50;99.90;;;;;;4975366;28;20050;-70
2021/10/12 08:25:11;;;;;;;11.90;1.80;;;9.60;99.90;;;;;;4975090;28;20535;-70
2021/10/12 08:27:38;;;;;;;14.73;1.88;;;9.70;99.90;;;;;;4975523;28;20105;-70
2021/10/12 08:30:06;;;;;;;16.25;2.45;;;9.80;99.90;;;;;;4975293;28;20031;-70
2021/10/12 08:32:32;;;;;;;14.43;2.85;;;10.00;99.90;;;;;;4974462;28;20560;-70
2021/10/12 08:34:57;;;;;;;20.15;2.35;;;10.10;99.90;;;;;;4974978;28;20039;-70
2021/10/12 08:37:23;;;;;;;10.98;2.00;;;10.20;99.90;;;;;;4974852;28;20395;-70
2021/10/12 08:39:49;;;;;;;13.23;1.77;;;10.40;99.90;;;;;;4975125;28;20019;-70
2021/10/12 08:42:26;;;;;;;18.27;3.08;;;10.50;99.90;;;;;;4974802;28;20390;-70
2021/10/12 08:44:57;;;;;;;17.58;1.88;;;10.50;99.90;;;;;;4975107;28;20089;-70
2021/10/12 08:47:24;;;;;;;15.32;1.90;;;10.70;99.90;;;;;;4974664;28;20031;-70
2021/10/12 08:49:51;;;;;;;9.60;1.67;;;10.80;99.90;;;;;;4975541;28;20377;-70
2021/10/12 08:52:17;;;;;;;9.90;1.23;;;10.80;99.90;;;;;;4974677;28;20438;-70
2021/10/12 08:54:42;;;;;;;12.88;1.45;;;11.00;99.90;;;;;;4974675;28;20023;-70
2021/10/12 08:57:08;;;;;;;13.63;2.03;;;11.10;99.90;;;;;;4989324;28;20037;-70
2021/10/12 08:59:34;;;;;;;12.00;2.45;;;11.30;99.90;;;;;;4974577;28;20483;-70
2021/10/12 09:02:02;;;;;;;12.70;1.95;;;11.60;99.90;;;;;;4974816;28;20109;-70
2021/10/12 09:04:41;;;;;;;12.43;2.10;;;11.70;99.90;;;;;;4974795;28;20029;-71
2021/10/12 09:07:23;;;;;;;6.90;1.42;;;11.70;99.90;;;;;;4974457;28;20038;-70
2021/10/12 09:09:49;;;;;;;10.85;1.58;;;11.70;99.90;;;;;;4974502;28;20058;-71
2021/10/12 09:12:15;;;;;;;12.05;2.05;;;11.70;99.90;;;;;;4974712;28;20030;-71
2021/10/12 09:15:00;;;;;;;8.10;1.80;;;11.80;99.90;;;;;;4974450;28;20030;-71
2021/10/12 09:17:34;;;;;;;7.38;1.42;;;11.70;99.90;;;;;;4974271;28;20035;-70
2021/10/12 09:20:03;;;;;;;9.27;1.67;;;11.70;99.90;;;;;;4974397;28;20023;-71
2021/10/12 09:22:29;;;;;;;20.85;2.50;;;11.90;99.90;;;;;;4974882;28;20023;-71
2021/10/12 09:25:09;;;;;;;10.15;1.92;;;11.90;99.90;;;;;;4974365;28;20023;-71
2021/10/12 09:27:52;;;;;;;8.25;1.67;;;11.80;99.90;;;;;;4973059;28;20074;-71
2021/10/12 09:30:29;;;;;;;7.70;1.77;;;11.80;99.90;;;;;;4974614;28;20042;-71
2021/10/12 09:33:01;;;;;;;16.48;2.63;;;12.00;99.90;;;;;;4974576;28;20035;-71
2021/10/12 09:35:28;;;;;;;6.65;1.75;;;12.30;99.90;;;;;;4974242;28;20061;-71
2021/10/12 09:38:21;;;;;;;12.07;2.05;;;12.20;99.90;;;;;;4972888;28;20026;-71
2021/10/12 09:40:47;;;;;;;8.35;1.55;;;12.00;99.90;;;;;;4987764;28;20042;-71
2021/10/12 09:43:17;;;;;;;13.90;1.75;;;12.10;99.90;;;;;;4974207;28;20030;-71
2021/10/12 09:45:44;;;;;;;8.00;1.60;;;12.20;99.90;;;;;;4975703;28;20389;-71
2021/10/12 09:48:30;;;;;;;8.65;2.28;;;12.20;99.90;;;;;;4978247;28;20101;-71
2021/10/12 09:51:12;;;;;;;7.63;1.42;;;12.20;99.90;;;;;;4978225;28;20114;-71
2021/10/12 09:53:43;;;;;;;6.53;1.35;;;12.20;99.90;;;;;;4978108;28;20033;-71
2021/10/12 09:56:09;;;;;;;12.18;1.50;;;12.30;99.90;;;;;;4977850;28;20114;-71
2021/10/12 09:58:37;;;;;;;13.18;2.55;;;12.30;99.90;;;;;;4978110;28;20026;-71
2021/10/12 10:01:07;;;;;;;25.30;1.90;;;12.50;99.90;;;;;;4977928;28;20475;-71
2021/10/12 10:03:33;;;;;;;16.17;1.80;;;12.50;99.90;;;;;;4977956;28;20109;-71
2021/10/12 10:06:04;;;;;;;7.40;1.52;;;12.80;99.90;;;;;;4977600;28;20441;-71
2021/10/12 10:08:30;;;;;;;14.68;1.63;;;13.10;99.90;;;;;;4977644;28;20525;-71
2021/10/12 10:10:59;;;;;;;12.25;1.83;;;13.10;99.90;;;;;;4977554;28;20035;-72
2021/10/12 10:13:26;;;;;;;12.02;1.80;;;13.00;99.90;;;;;;4977805;28;20097;-71
2021/10/12 10:15:53;;;;;;;21.00;2.20;;;13.00;99.90;;;;;;4976449;28;20390;-71
2021/10/12 10:18:20;;;;;;;16.08;2.03;;;12.80;99.90;;;;;;4977444;28;20053;-71
2021/10/12 10:20:51;;;;;;;9.77;1.52;;;12.90;99.90;;;;;;4977668;28;20095;-71
2021/10/12 10:24:07;;;;;;;13.82;1.85;;;13.00;99.90;;;;;;4976146;28;20027;-71
2021/10/12 10:26:39;;;;;;;8.40;1.40;;;13.00;99.90;;;;;;4977286;28;20031;-71
2021/10/12 10:29:42;;;;;;;13.38;1.77;;;13.00;99.90;;;;;;4977276;28;20105;-71
2021/10/12 10:32:19;;;;;;;10.18;1.55;;;12.90;99.90;;;;;;4977495;28;20114;-71
2021/10/12 10:35:04;;;;;;;7.80;1.63;;;12.90;99.90;;;;;;4977417;28;20019;-71
2021/10/12 10:37:34;;;;;;;5.40;1.50;;;12.90;99.90;;;;;;4977006;28;20177;-71
2021/10/12 10:40:27;;;;;;;19.83;3.28;;;12.90;99.90;;;;;;4977346;28;20015;-71
2021/10/12 10:42:55;;;;;;;9.60;1.67;;;13.00;99.90;;;;;;4977217;28;20529;-71
2021/10/12 10:45:48;;;;;;;16.27;2.83;;;13.10;99.90;;;;;;4976958;28;20486;-71
2021/10/12 10:48:17;;;;;;;9.05;1.63;;;13.20;99.90;;;;;;4977240;28;20034;-71
2021/10/12 10:50:43;;;;;;;11.48;2.28;;;13.40;99.90;;;;;;4991838;28;20027;-71
2021/10/12 10:53:11;;;;;;;5.65;1.42;;;13.70;99.90;;;;;;4977073;28;20026;-71
2021/10/12 10:55:44;;;;;;;12.85;1.90;;;13.90;99.90;;;;;;4976287;28;20501;-71
2021/10/12 10:58:14;;;;;;;14.65;1.65;;;14.10;99.90;;;;;;4977154;28;20113;-72
2021/10/12 11:00:50;;;;;;;9.50;1.77;;;14.20;99.90;;;;;;4976899;28;20023;-72
2021/10/12 11:03:31;;;;;;;8.73;1.63;;;14.10;99.90;;;;;;4976654;28;20027;-72
2021/10/12 11:06:18;;;;;;;7.18;1.65;;;14.10;99.90;;;;;;4976537;28;20478;-71
2021/10/12 11:09:01;;;;;;;13.70;1.25;;;14.00;99.90;;;;;;4976186;28;20042;-71
2021/10/12 11:11:34;;;;;;;7.05;1.13;;;13.90;99.90;;;;;;4976728;28;20081;-71
2021/10/12 11:14:00;;;;;;;13.50;1.48;;;13.90;99.90;;;;;;4976461;28;20498;-72
2021/10/12 11:16:36;;;;;;;9.75;1.42;;;14.00;99.90;;;;;;4976521;28;20066;-71
2021/10/12 11:19:03;;;;;;;10.65;2.05;;;14.00;99.90;;;;;;4976631;28;20018;-71
2021/10/12 11:21:29;;;;;;;19.10;1.83;;;13.90;99.90;;;;;;4976274;28;20019;-72
2021/10/12 11:23:57;;;;;;;6.07;1.17;;;13.70;99.90;;;;;;4976243;28;20030;-71
2021/10/12 11:26:24;;;;;;;12.32;2.70;;;13.50;99.90;;;;;;4974839;28;20410;-71
2021/10/12 11:28:55;;;;;;;13.68;1.60;;;13.40;99.90;;;;;;4976173;28;20035;-71
2021/10/12 11:31:24;;;;;;;2.47;0.90;;;13.40;99.90;;;;;;4976156;28;20109;-71
2021/10/12 11:33:55;;;;;;;14.63;0.98;;;13.80;99.90;;;;;;4976318;28;20030;-72
2021/10/12 11:36:31;;;;;;;4.28;1.13;;;14.00;99.90;;;;;;4975897;28;20027;-71
2021/10/12 11:38:59;;;;;;;3.50;1.42;;;14.00;99.90;;;;;;4976044;28;20027;-71
2021/10/12 11:41:36;;;;;;;3.92;0.93;;;13.80;99.90;;;;;;4975898;28;20046;-71
2021/10/12 11:44:15;;;;;;;6.32;0.90;;;13.60;99.90;;;;;;4976189;28;20494;-71
2021/10/12 11:46:46;;;;;;;1.80;1.10;;;13.60;99.90;;;;;;4990729;28;20490;-71
2021/10/12 11:49:14;;;;;;;3.83;0.70;;;13.60;99.90;;;;;;4975801;28;20038;-71
2021/10/12 11:51:40;;;;;;;2.55;0.82;;;13.70;99.90;;;;;;4975997;28;20027;-71
2021/10/12 11:54:06;;;;;;;6.15;1.00;;;13.70;99.90;;;;;;4975951;28;20474;-72
2021/10/12 11:56:35;;;;;;;2.65;0.70;;;13.80;99.90;;;;;;4999024;23;20077;-67
2021/10/12 11:59:00;;;;;;;9.95;1.85;;;13.80;99.90;;;;;;4975399;28;20039;-66
2021/10/12 12:01:31;;;;;;;4.63;0.70;;;13.60;99.90;;;;;;4975819;28;20035;-66
2021/10/12 12:03:59;;;;;;;3.05;0.77;;;13.30;99.90;;;;;;4975827;28;20171;-66
2021/10/12 12:06:28;;;;;;;4.80;0.85;;;13.10;99.90;;;;;;4975519;28;20031;-66
2021/10/12 12:08:56;;;;;;;3.80;0.60;;;12.70;99.90;;;;;;4975120;28;20411;-66
2021/10/12 12:11:29;;;;;;;1.98;0.50;;;12.60;99.90;;;;;;4975648;28;20050;-66
2021/10/12 12:13:56;;;;;;;3.20;0.80;;;12.40;99.90;;;;;;4975670;28;20058;-66
2021/10/12 12:16:23;;;;;;;6.43;0.85;;;12.50;99.90;;;;;;4975462;28;20391;-66
2021/10/12 12:18:49;;;;;;;8.13;1.40;;;13.10;99.90;;;;;;4975456;28;20078;-66
2021/10/12 12:21:29;;;;;;;4.63;0.63;;;13.00;99.90;;;;;;4975192;28;20522;-66
2021/10/12 12:23:58;;;;;;;2.05;0.60;;;12.50;99.90;;;;;;4975269;28;20027;-66
2021/10/12 12:26:27;;;;;;;2.47;0.77;;;12.20;99.90;;;;;;4975037;28;20478;-66
2021/10/12 12:28:52;;;;;;;1.15;0.55;;;12.00;99.90;;;;;;4975090;28;20045;-66
2021/10/12 12:31:19;;;;;;;5.85;0.90;;;11.80;99.90;;;;;;4975255;28;20030;-66
2021/10/12 12:33:50;;;;;;;4.78;0.63;;;11.70;99.90;;;;;;4975056;28;20035;-66
2021/10/12 12:36:16;;;;;;;4.07;0.70;;;11.90;99.90;;;;;;4975143;28;20061;-66
2021/10/12 12:38:42;;;;;;;2.78;0.70;;;12.10;99.90;;;;;;4974787;28;20538;-66
2021/10/12 12:41:25;;;;;;;4.95;0.88;;;12.50;99.90;;;;;;4975152;28;20054;-66
2021/10/12 12:43:53;;;;;;;2.65;0.82;;;13.00;99.90;;;;;;4975155;28;20023;-66
2021/10/12 12:46:20;;;;;;;4.82;0.63;;;13.90;99.90;;;;;;4975030;28;20041;-66
2021/10/12 12:49:10;;;;;;;2.47;0.75;;;14.80;99.90;;;;;;4974586;28;20037;-66
2021/10/12 12:51:47;;;;;;;1.92;0.75;;;15.70;99.90;;;;;;4974661;28;20497;-66